Time,TemperatureF,DewpointF,PressureIn,WindDirection,WindDirectionDegrees,WindSpeedMPH,WindSpeedGustMPH,Humidity,HourlyPrecipIn,Conditions,Clouds,dailyrainin,SoftwareType,DateUTC
2013-08-27 00:02:00,50.9,44.6,29.98,SSE,168,0.0,0.0,79,0.00,,,0.01,meteohub,2013-08-27 07:02:00,
2013-08-27 00:07:00,50.7,44.4,29.98,SSE,168,0.0,0.0,79,0.00,,,0.00,meteohub,2013-08-27 07:07:00,
2013-08-27 00:12:00,50.4,44.1,29.98,SSE,168,0.0,1.0,79,0.00,,,0.00,meteohub,2013-08-27 07:12:00,
2013-08-27 00:17:00,50.2,43.9,29.99,SSE,168,0.0,1.0,79,0.00,,,0.00,meteohub,2013-08-27 07:17:00,
2013-08-27 00:22:00,50.0,43.7,29.99,SSE,168,0.0,1.0,79,0.00,,,0.00,meteohub,2013-08-27 07:22:00,
2013-08-27 00:27:00,50.0,43.7,29.99,SSE,168,0.0,1.0,79,0.00,,,0.00,meteohub,2013-08-27 07:27:00,
2013-08-27 00:32:00,49.8,43.9,29.99,SSE,167,0.0,1.0,80,0.00,,,0.00,meteohub,2013-08-27 07:32:00,
2013-08-27 00:37:00,49.8,43.9,29.99,South,169,0.0,1.0,80,0.00,,,0.00,meteohub,2013-08-27 07:37:00,
2013-08-27 00:42:00,49.6,43.7,29.99,South,169,0.0,1.0,80,0.00,,,0.00,meteohub,2013-08-27 07:42:00,
2013-08-27 00:47:00,49.5,43.9,29.99,South,169,0.0,0.0,81,0.00,,,0.00,meteohub,2013-08-27 07:47:00,
2013-08-27 00:52:00,49.5,43.5,29.99,South,169,0.0,1.0,80,0.00,,,0.00,meteohub,2013-08-27 07:52:00,
2013-08-27 00:57:00,49.3,43.3,29.99,South,169,0.0,1.0,80,0.00,,,0.00,meteohub,2013-08-27 07:57:00,
2013-08-27 01:02:00,49.1,43.2,29.99,South,169,0.0,1.0,80,0.00,,,0.00,meteohub,2013-08-27 08:02:00,
2013-08-27 01:07:00,48.4,41.9,29.99,South,169,0.0,1.0,78,0.00,,,0.00,meteohub,2013-08-27 08:07:00,
2013-08-27 01:12:00,47.8,41.7,29.99,South,169,0.0,0.0,79,0.00,,,0.00,meteohub,2013-08-27 08:12:00,
2013-08-27 01:17:00,47.5,41.5,29.99,South,169,0.0,0.0,80,0.00,,,0.00,meteohub,2013-08-27 08:17:00,
2013-08-27 01:22:00,47.1,41.5,29.99,South,169,0.0,0.0,81,0.00,,,0.00,meteohub,2013-08-27 08:22:00,
2013-08-27 01:27:00,46.9,41.7,29.99,South,182,0.0,1.0,82,0.00,,,0.00,meteohub,2013-08-27 08:27:00,
2013-08-27 01:32:00,46.9,42.1,29.99,South,185,0.0,2.0,83,0.00,,,0.00,meteohub,2013-08-27 08:32:00,
2013-08-27 01:37:00,46.8,41.5,29.99,South,186,0.0,2.0,82,0.00,,,0.00,meteohub,2013-08-27 08:37:00,
2013-08-27 01:42:00,46.8,41.5,29.99,South,186,0.0,2.0,82,0.00,,,0.00,meteohub,2013-08-27 08:42:00,
2013-08-27 01:47:00,46.8,41.9,29.99,South,190,0.0,2.0,83,0.00,,,0.00,meteohub,2013-08-27 08:47:00,
2013-08-27 01:52:00,46.6,41.7,29.99,South,190,0.0,2.0,83,0.00,,,0.00,meteohub,2013-08-27 08:52:00,
2013-08-27 01:57:00,46.6,41.7,29.99,South,190,0.0,2.0,83,0.00,,,0.00,meteohub,2013-08-27 08:57:00,
2013-08-27 02:02:00,46.4,41.5,29.99,SSW,192,1.0,2.0,83,0.00,,,0.00,meteohub,2013-08-27 09:02:00,
2013-08-27 02:07:00,46.2,41.0,29.99,SSW,192,0.0,3.0,82,0.00,,,0.00,meteohub,2013-08-27 09:07:00,
2013-08-27 02:12:00,45.9,40.6,29.99,SSW,192,0.0,3.0,82,0.00,,,0.00,meteohub,2013-08-27 09:12:00,
2013-08-27 02:17:00,45.7,40.8,29.99,SSW,192,0.0,3.0,83,0.00,,,0.00,meteohub,2013-08-27 09:17:00,
2013-08-27 02:22:00,45.7,41.2,29.99,SSW,192,0.0,1.0,84,0.00,,,0.00,meteohub,2013-08-27 09:22:00,
2013-08-27 02:27:00,45.5,41.0,29.99,SSW,192,0.0,2.0,84,0.00,,,0.00,meteohub,2013-08-27 09:27:00,
2013-08-27 02:32:00,45.5,41.0,29.98,SSW,194,0.0,2.0,84,0.00,,,0.00,meteohub,2013-08-27 09:32:00,
2013-08-27 02:37:00,45.3,40.5,29.98,SSW,194,0.0,2.0,83,0.00,,,0.00,meteohub,2013-08-27 09:37:00,
2013-08-27 02:42:00,45.0,40.1,29.98,SSW,194,0.0,2.0,83,0.00,,,0.00,meteohub,2013-08-27 09:42:00,
2013-08-27 02:47:00,44.6,39.4,29.97,SSW,194,0.0,2.0,82,0.00,,,0.00,meteohub,2013-08-27 09:47:00,
2013-08-27 02:52:00,44.4,39.2,29.97,SSW,194,0.0,0.0,82,0.00,,,0.00,meteohub,2013-08-27 09:52:00,
2013-08-27 02:57:00,43.9,39.0,29.97,SSW,194,0.0,0.0,83,0.00,,,0.00,meteohub,2013-08-27 09:57:00,
2013-08-27 03:02:00,43.7,39.2,29.97,SSW,194,0.0,0.0,84,0.00,,,0.00,meteohub,2013-08-27 10:02:00,
2013-08-27 03:07:00,43.5,39.0,29.97,SSW,194,0.0,0.0,84,0.00,,,0.00,meteohub,2013-08-27 10:07:00,
2013-08-27 03:12:00,43.5,39.0,29.97,SSW,194,0.0,0.0,84,0.00,,,0.00,meteohub,2013-08-27 10:12:00,
2013-08-27 03:17:00,43.3,39.2,29.97,SSW,194,0.0,0.0,85,0.00,,,0.00,meteohub,2013-08-27 10:17:00,
2013-08-27 03:22:00,43.3,39.2,29.97,SSW,194,0.0,0.0,85,0.00,,,0.00,meteohub,2013-08-27 10:22:00,
2013-08-27 03:27:00,43.2,39.0,29.97,SSW,194,0.0,0.0,85,0.00,,,0.00,meteohub,2013-08-27 10:27:00,
2013-08-27 03:32:00,43.0,39.0,29.97,SSW,194,0.0,0.0,86,0.00,,,0.00,meteohub,2013-08-27 10:32:00,
2013-08-27 03:37:00,43.0,39.0,29.97,SSW,194,0.0,0.0,86,0.00,,,0.00,meteohub,2013-08-27 10:37:00,
2013-08-27 03:42:00,42.8,38.8,29.97,SSW,194,0.0,0.0,86,0.00,,,0.00,meteohub,2013-08-27 10:42:00,
2013-08-27 03:47:00,42.8,38.8,29.97,SSW,194,0.0,0.0,86,0.00,,,0.00,meteohub,2013-08-27 10:47:00,
2013-08-27 03:52:00,42.8,38.8,29.97,SSW,194,0.0,0.0,86,0.00,,,0.00,meteohub,2013-08-27 10:52:00,
2013-08-27 03:57:00,42.6,38.7,29.97,SSW,194,0.0,0.0,86,0.00,,,0.00,meteohub,2013-08-27 10:57:00,
2013-08-27 04:02:00,42.3,38.3,29.97,SSW,194,0.0,0.0,86,0.00,,,0.00,meteohub,2013-08-27 11:02:00,
2013-08-27 04:07:00,42.4,38.8,29.97,SSW,194,0.0,0.0,87,0.00,,,0.00,meteohub,2013-08-27 11:07:00,
2013-08-27 04:12:00,42.4,38.8,29.97,SSW,194,0.0,1.0,87,0.00,,,0.00,meteohub,2013-08-27 11:12:00,
2013-08-27 04:17:00,42.3,38.7,29.97,SSW,194,0.0,1.0,87,0.00,,,0.00,meteohub,2013-08-27 11:17:00,
2013-08-27 04:22:00,42.3,38.7,29.97,SSW,194,0.0,2.0,87,0.00,,,0.00,meteohub,2013-08-27 11:22:00,
2013-08-27 04:27:00,42.3,38.7,29.97,SSW,194,0.0,2.0,87,0.00,,,0.00,meteohub,2013-08-27 11:27:00,
2013-08-27 04:32:00,42.3,38.7,29.97,SSW,194,0.0,1.0,87,0.00,,,0.00,meteohub,2013-08-27 11:32:00,
2013-08-27 04:37:00,42.1,38.5,29.97,SSW,194,0.0,1.0,87,0.00,,,0.00,meteohub,2013-08-27 11:37:00,
2013-08-27 04:42:00,42.1,38.1,29.97,SSW,194,0.0,1.0,86,0.00,,,0.00,meteohub,2013-08-27 11:42:00,
2013-08-27 04:47:00,41.9,38.3,29.97,SSW,194,0.0,0.0,87,0.00,,,0.00,meteohub,2013-08-27 11:47:00,
2013-08-27 04:52:00,41.5,37.9,29.97,SSW,194,0.0,0.0,87,0.00,,,0.00,meteohub,2013-08-27 11:52:00,
2013-08-27 04:57:00,41.4,37.8,29.97,SSW,194,0.0,0.0,87,0.00,,,0.00,meteohub,2013-08-27 11:57:00,
2013-08-27 05:02:00,41.4,37.8,29.97,SSW,194,0.0,1.0,87,0.00,,,0.00,meteohub,2013-08-27 12:02:00,
2013-08-27 05:07:00,41.4,38.1,29.97,SSW,194,0.0,1.0,88,0.00,,,0.00,meteohub,2013-08-27 12:07:00,
2013-08-27 05:12:00,41.4,38.1,29.97,SSW,193,0.0,2.0,88,0.00,,,0.00,meteohub,2013-08-27 12:12:00,
2013-08-27 05:17:00,41.4,38.1,29.97,SSW,193,2.0,2.0,88,0.00,,,0.00,meteohub,2013-08-27 12:17:00,
2013-08-27 05:22:00,41.4,38.1,29.97,SSW,195,0.0,2.0,88,0.00,,,0.00,meteohub,2013-08-27 12:22:00,
2013-08-27 05:27:00,41.4,38.1,29.97,SSW,198,0.0,2.0,88,0.00,,,0.00,meteohub,2013-08-27 12:27:00,
2013-08-27 05:32:00,41.4,38.1,29.97,SSW,198,0.0,2.0,88,0.00,,,0.00,meteohub,2013-08-27 12:32:00,
2013-08-27 05:37:00,41.4,38.1,29.97,SSW,198,0.0,2.0,88,0.00,,,0.00,meteohub,2013-08-27 12:37:00,
2013-08-27 05:42:00,41.2,37.9,29.97,SSW,199,0.0,1.0,88,0.00,,,0.00,meteohub,2013-08-27 12:42:00,
2013-08-27 05:47:00,41.2,38.1,29.97,South,177,0.0,2.0,89,0.00,,,0.00,meteohub,2013-08-27 12:47:00,
2013-08-27 05:52:00,41.2,38.1,29.97,South,177,0.0,2.0,89,0.00,,,0.00,meteohub,2013-08-27 12:52:00,
2013-08-27 05:57:00,41.2,38.1,29.97,South,177,0.0,2.0,89,0.00,,,0.00,meteohub,2013-08-27 12:57:00,
2013-08-27 06:02:00,41.2,37.9,29.98,South,177,0.0,2.0,88,0.00,,,0.00,meteohub,2013-08-27 13:02:00,
2013-08-27 06:07:00,41.0,37.8,29.98,South,177,0.0,0.0,88,0.00,,,0.00,meteohub,2013-08-27 13:07:00,
2013-08-27 06:12:00,40.8,37.2,29.98,South,177,0.0,0.0,87,0.00,,,0.00,meteohub,2013-08-27 13:12:00,
2013-08-27 06:17:00,40.5,36.9,29.98,South,177,0.0,0.0,87,0.00,,,0.00,meteohub,2013-08-27 13:17:00,
2013-08-27 06:22:00,40.1,36.3,29.98,South,177,0.0,0.0,86,0.00,,,0.00,meteohub,2013-08-27 13:22:00,
2013-08-27 06:27:00,39.7,36.1,29.98,South,177,0.0,0.0,87,0.00,,,0.00,meteohub,2013-08-27 13:27:00,
2013-08-27 06:32:00,39.4,35.8,29.97,South,177,0.0,0.0,87,0.00,,,0.00,meteohub,2013-08-27 13:32:00,
2013-08-27 06:37:00,39.2,35.6,29.97,South,177,0.0,0.0,87,0.00,,,0.00,meteohub,2013-08-27 13:37:00,
2013-08-27 06:42:00,39.0,35.4,29.97,South,177,0.0,0.0,87,0.00,,,0.00,meteohub,2013-08-27 13:42:00,
2013-08-27 06:47:00,39.0,35.8,29.98,South,177,0.0,0.0,88,0.00,,,0.00,meteohub,2013-08-27 13:47:00,
2013-08-27 06:52:00,38.8,35.6,29.98,South,177,0.0,0.0,88,0.00,,,0.00,meteohub,2013-08-27 13:52:00,
2013-08-27 06:57:00,38.7,35.4,29.98,South,177,0.0,0.0,88,0.00,,,0.00,meteohub,2013-08-27 13:57:00,
2013-08-27 07:02:00,38.8,36.0,29.98,South,177,0.0,0.0,89,0.00,,,0.00,meteohub,2013-08-27 14:02:00,
2013-08-27 07:07:00,39.0,36.1,29.98,South,177,0.0,0.0,89,0.00,,,0.00,meteohub,2013-08-27 14:07:00,
2013-08-27 07:12:00,39.2,36.1,29.98,South,177,0.0,0.0,89,0.00,,,0.00,meteohub,2013-08-27 14:12:00,
2013-08-27 07:17:00,39.4,36.7,29.98,South,177,0.0,0.0,90,0.00,,,0.00,meteohub,2013-08-27 14:17:00,
2013-08-27 07:22:00,39.6,36.9,29.98,South,177,0.0,0.0,90,0.00,,,0.00,meteohub,2013-08-27 14:22:00,
2013-08-27 07:27:00,39.9,37.2,29.98,South,177,0.0,0.0,90,0.00,,,0.00,meteohub,2013-08-27 14:27:00,
2013-08-27 07:32:00,40.3,37.6,29.98,South,177,0.0,2.0,90,0.00,,,0.00,meteohub,2013-08-27 14:32:00,
2013-08-27 07:37:00,40.6,37.9,29.98,South,180,0.0,2.0,90,0.00,,,0.00,meteohub,2013-08-27 14:37:00,
2013-08-27 07:42:00,41.0,38.3,29.98,South,180,0.0,2.0,90,0.00,,,0.00,meteohub,2013-08-27 14:42:00,
2013-08-27 07:47:00,41.4,38.7,29.98,South,182,0.0,2.0,90,0.00,,,0.00,meteohub,2013-08-27 14:47:00,
2013-08-27 07:52:00,41.7,39.2,29.98,SSW,199,0.0,4.0,91,0.00,,,0.00,meteohub,2013-08-27 14:52:00,
2013-08-27 07:57:00,42.3,39.7,29.98,SSW,213,0.0,4.0,91,0.00,,,0.00,meteohub,2013-08-27 14:57:00,
2013-08-27 08:02:00,42.8,40.1,29.97,SSW,202,0.0,4.0,90,0.00,,,0.00,meteohub,2013-08-27 15:02:00,
2013-08-27 08:07:00,43.3,40.6,29.97,SSW,202,0.0,4.0,90,0.00,,,0.00,meteohub,2013-08-27 15:07:00,
2013-08-27 08:12:00,43.9,40.8,29.97,SSW,202,0.0,4.0,89,0.00,,,0.00,meteohub,2013-08-27 15:12:00,
2013-08-27 08:17:00,44.6,41.5,29.97,SSW,203,0.0,4.0,89,0.00,,,0.00,meteohub,2013-08-27 15:17:00,
2013-08-27 08:22:00,45.3,41.9,29.97,South,190,0.0,3.0,88,0.00,,,0.00,meteohub,2013-08-27 15:22:00,
2013-08-27 08:27:00,45.9,42.3,29.97,South,191,0.0,4.0,87,0.00,,,0.00,meteohub,2013-08-27 15:27:00,
2013-08-27 08:32:00,46.9,43.0,29.97,South,191,0.0,4.0,86,0.00,,,0.00,meteohub,2013-08-27 15:32:00,
2013-08-27 08:37:00,48.0,43.7,29.97,SSW,192,0.0,4.0,85,0.00,,,0.00,meteohub,2013-08-27 15:37:00,
2013-08-27 08:42:00,48.9,44.1,29.97,SSW,192,1.0,2.0,83,0.00,,,0.00,meteohub,2013-08-27 15:42:00,
2013-08-27 08:47:00,50.2,45.0,29.97,SSW,193,0.0,2.0,82,0.00,,,0.00,meteohub,2013-08-27 15:47:00,
2013-08-27 08:52:00,51.8,45.5,29.97,SSW,194,0.0,3.0,79,0.00,,,0.00,meteohub,2013-08-27 15:52:00,
2013-08-27 08:57:00,53.1,45.3,29.97,SSW,198,0.0,3.0,75,0.00,,,0.00,meteohub,2013-08-27 15:57:00,
2013-08-27 09:02:00,54.0,45.5,29.96,SW,217,3.0,5.0,73,0.00,,,0.00,meteohub,2013-08-27 16:02:00,
2013-08-27 09:07:00,54.7,46.2,29.96,South,183,0.0,5.0,73,0.00,,,0.00,meteohub,2013-08-27 16:07:00,
2013-08-27 09:12:00,55.4,45.7,29.96,South,183,0.0,5.0,70,0.00,,,0.00,meteohub,2013-08-27 16:12:00,
2013-08-27 09:17:00,56.3,46.6,29.96,SW,230,1.0,4.0,70,0.00,,,0.00,meteohub,2013-08-27 16:17:00,
2013-08-27 09:22:00,57.4,46.6,29.96,SW,229,0.0,3.0,67,0.00,,,0.00,meteohub,2013-08-27 16:22:00,
2013-08-27 09:27:00,58.3,46.9,29.96,SW,227,0.0,3.0,66,0.00,,,0.00,meteohub,2013-08-27 16:27:00,
2013-08-27 09:32:00,59.0,47.3,29.96,SSW,202,0.0,3.0,65,0.00,,,0.00,meteohub,2013-08-27 16:32:00,
2013-08-27 09:37:00,59.9,47.3,29.96,SW,218,0.0,5.0,63,0.00,,,0.00,meteohub,2013-08-27 16:37:00,
2013-08-27 09:42:00,60.4,47.8,29.96,SSW,199,2.0,5.0,63,0.00,,,0.00,meteohub,2013-08-27 16:42:00,
2013-08-27 09:47:00,61.2,47.7,29.95,South,169,0.0,4.0,61,0.00,,,0.00,meteohub,2013-08-27 16:47:00,
2013-08-27 09:52:00,61.9,48.2,29.95,South,171,0.0,4.0,61,0.00,,,0.00,meteohub,2013-08-27 16:52:00,
2013-08-27 09:57:00,62.6,48.6,29.95,SW,234,0.0,4.0,60,0.00,,,0.00,meteohub,2013-08-27 16:57:00,
2013-08-27 10:02:00,63.1,48.0,29.95,SW,235,0.0,4.0,58,0.00,,,0.00,meteohub,2013-08-27 17:02:00,
2013-08-27 10:07:00,63.9,49.3,29.95,SW,235,0.0,4.0,59,0.00,,,0.00,meteohub,2013-08-27 17:07:00,
2013-08-27 10:12:00,64.9,48.9,29.95,South,180,2.0,3.0,56,0.00,,,0.00,meteohub,2013-08-27 17:12:00,
2013-08-27 10:17:00,65.5,48.4,29.94,SSW,205,0.0,4.0,54,0.00,,,0.00,meteohub,2013-08-27 17:17:00,
2013-08-27 10:22:00,66.2,48.6,29.94,SW,233,1.0,4.0,53,0.00,,,0.00,meteohub,2013-08-27 17:22:00,
2013-08-27 10:27:00,66.4,48.2,29.94,WSW,245,0.0,4.0,52,0.00,,,0.00,meteohub,2013-08-27 17:27:00,
2013-08-27 10:32:00,66.4,48.2,29.94,WSW,247,1.0,4.0,52,0.00,,,0.00,meteohub,2013-08-27 17:32:00,
2013-08-27 10:37:00,67.1,47.8,29.94,South,182,2.0,4.0,50,0.00,,,0.00,meteohub,2013-08-27 17:37:00,
2013-08-27 10:42:00,67.5,47.7,29.94,WSW,257,1.0,4.0,49,0.00,,,0.00,meteohub,2013-08-27 17:42:00,
2013-08-27 10:47:00,68.2,47.7,29.93,West,267,1.0,4.0,48,0.00,,,0.00,meteohub,2013-08-27 17:47:00,
2013-08-27 10:52:00,68.7,48.2,29.93,South,186,2.0,4.0,48,0.00,,,0.00,meteohub,2013-08-27 17:52:00,
2013-08-27 10:57:00,69.1,48.0,29.93,SW,229,1.0,5.0,47,0.00,,,0.00,meteohub,2013-08-27 17:57:00,
2013-08-27 11:02:00,69.6,49.1,29.93,WSW,243,0.0,5.0,48,0.00,,,0.00,meteohub,2013-08-27 18:02:00,
2013-08-27 11:07:00,69.8,49.3,29.93,WSW,252,1.0,5.0,48,0.00,,,0.00,meteohub,2013-08-27 18:07:00,
2013-08-27 11:12:00,70.3,49.1,29.93,SSE,167,2.0,6.0,47,0.00,,,0.00,meteohub,2013-08-27 18:12:00,
2013-08-27 11:17:00,71.1,49.8,29.92,South,184,0.0,6.0,47,0.00,,,0.00,meteohub,2013-08-27 18:17:00,
2013-08-27 11:22:00,72.0,48.7,29.92,South,187,0.0,6.0,44,0.00,,,0.00,meteohub,2013-08-27 18:22:00,
2013-08-27 11:27:00,72.5,48.7,29.92,SW,230,0.0,5.0,43,0.00,,,0.00,meteohub,2013-08-27 18:27:00,
2013-08-27 11:32:00,72.9,49.1,29.91,SW,234,0.0,4.0,43,0.00,,,0.00,meteohub,2013-08-27 18:32:00,
2013-08-27 11:37:00,73.4,48.9,29.91,West,260,0.0,4.0,42,0.00,,,0.00,meteohub,2013-08-27 18:37:00,
2013-08-27 11:42:00,73.8,48.6,29.91,SSW,211,0.0,8.0,41,0.00,,,0.00,meteohub,2013-08-27 18:42:00,
2013-08-27 11:47:00,74.1,48.2,29.91,South,169,0.0,8.0,40,0.00,,,0.00,meteohub,2013-08-27 18:47:00,
2013-08-27 11:52:00,74.5,48.6,29.91,SSW,194,5.0,8.0,40,0.00,,,0.00,meteohub,2013-08-27 18:52:00,
2013-08-27 11:57:00,74.5,47.8,29.91,South,173,0.0,7.0,39,0.00,,,0.00,meteohub,2013-08-27 18:57:00,
2013-08-27 12:02:00,74.5,47.1,29.90,SSW,202,0.0,7.0,38,0.00,,,0.00,meteohub,2013-08-27 19:02:00,
2013-08-27 12:07:00,74.8,47.5,29.90,SSW,202,0.0,8.0,38,0.00,,,0.00,meteohub,2013-08-27 19:07:00,
2013-08-27 12:12:00,75.4,48.0,29.90,SSW,200,0.0,8.0,38,0.00,,,0.00,meteohub,2013-08-27 19:12:00,
2013-08-27 12:17:00,75.9,49.1,29.89,WSW,254,0.0,8.0,39,0.00,,,0.00,meteohub,2013-08-27 19:17:00,
2013-08-27 12:22:00,75.4,45.9,29.89,WSW,245,1.0,5.0,35,0.00,,,0.00,meteohub,2013-08-27 19:22:00,
2013-08-27 12:27:00,75.6,47.5,29.89,WSW,254,8.0,8.0,37,0.00,,,0.00,meteohub,2013-08-27 19:27:00,
2013-08-27 12:32:00,75.6,46.8,29.89,SW,215,0.0,8.0,36,0.00,,,0.00,meteohub,2013-08-27 19:32:00,
2013-08-27 12:37:00,75.6,46.8,29.89,South,181,2.0,8.0,36,0.00,,,0.00,meteohub,2013-08-27 19:37:00,
2013-08-27 12:42:00,75.6,46.8,29.89,SSW,201,2.0,8.0,36,0.00,,,0.00,meteohub,2013-08-27 19:42:00,
2013-08-27 12:47:00,75.9,47.7,29.88,WSW,245,1.0,8.0,37,0.00,,,0.00,meteohub,2013-08-27 19:47:00,
2013-08-27 12:52:00,76.1,46.4,29.88,SSE,165,0.0,10.0,35,0.00,,,0.00,meteohub,2013-08-27 19:52:00,
2013-08-27 12:57:00,76.8,47.8,29.88,South,190,1.0,10.0,36,0.00,,,0.00,meteohub,2013-08-27 19:57:00,
2013-08-27 13:02:00,77.4,46.0,29.87,South,187,0.0,10.0,33,0.00,,,0.00,meteohub,2013-08-27 20:02:00,
2013-08-27 13:07:00,77.9,47.3,29.87,SSW,207,0.0,7.0,34,0.00,,,0.00,meteohub,2013-08-27 20:07:00,
2013-08-27 13:12:00,77.9,48.0,29.87,NW,307,0.0,7.0,35,0.00,,,0.00,meteohub,2013-08-27 20:12:00,
2013-08-27 13:17:00,78.3,45.9,29.87,WNW,301,0.0,7.0,32,0.00,,,0.00,meteohub,2013-08-27 20:17:00,
2013-08-27 13:22:00,78.6,47.1,29.87,WSW,244,1.0,5.0,33,0.00,,,0.00,meteohub,2013-08-27 20:22:00,
2013-08-27 13:27:00,79.0,46.6,29.87,WNW,287,3.0,5.0,32,0.00,,,0.00,meteohub,2013-08-27 20:27:00,
2013-08-27 13:32:00,78.3,45.9,29.86,WSW,248,1.0,10.0,32,0.00,,,0.00,meteohub,2013-08-27 20:32:00,
2013-08-27 13:37:00,78.3,45.9,29.86,WSW,252,1.0,10.0,32,0.00,,,0.00,meteohub,2013-08-27 20:37:00,
2013-08-27 13:42:00,78.6,47.1,29.86,SW,228,2.0,12.0,33,0.00,,,0.00,meteohub,2013-08-27 20:42:00,
2013-08-27 13:47:00,79.2,48.4,29.86,SSE,163,3.0,12.0,34,0.00,,,0.00,meteohub,2013-08-27 20:47:00,
2013-08-27 13:52:00,79.3,46.0,29.86,West,264,0.0,6.0,31,0.00,,,0.00,meteohub,2013-08-27 20:52:00,
2013-08-27 13:57:00,79.3,46.0,29.86,NW,304,6.0,6.0,31,0.00,,,0.00,meteohub,2013-08-27 20:57:00,
2013-08-27 14:02:00,79.5,47.8,29.85,NNW,334,0.0,6.0,33,0.00,,,0.00,meteohub,2013-08-27 21:02:00,
2013-08-27 14:07:00,79.5,46.2,29.85,West,279,3.0,8.0,31,0.00,,,0.00,meteohub,2013-08-27 21:07:00,
2013-08-27 14:20:00,79.7,47.1,29.85,SSW,197,0.0,6.0,32,0.00,,,0.00,meteohub,2013-08-27 21:20:00,
2013-08-27 14:27:00,80.4,45.1,29.85,SSW,211,0.0,10.0,29,0.00,,,0.00,meteohub,2013-08-27 21:27:00,
2013-08-27 14:34:00,81.0,44.8,29.84,South,180,3.0,12.0,28,0.00,,,0.00,meteohub,2013-08-27 21:34:00,
2013-08-27 14:42:00,81.0,45.7,29.84,SW,221,10.0,10.0,29,0.00,,,0.00,meteohub,2013-08-27 21:42:00,
2013-08-27 14:47:00,81.0,45.7,29.84,SSE,166,1.0,8.0,29,0.00,,,0.00,meteohub,2013-08-27 21:47:00,
2013-08-27 14:52:00,80.8,45.5,29.84,SSW,194,0.0,16.0,29,0.00,,,0.00,meteohub,2013-08-27 21:52:00,
2013-08-27 14:57:00,80.6,46.2,29.84,WSW,258,0.0,16.0,30,0.00,,,0.00,meteohub,2013-08-27 21:57:00,
2013-08-27 15:03:00,80.8,44.6,29.83,North,0,3.0,8.0,28,0.00,,,0.00,meteohub,2013-08-27 22:03:00,
2013-08-27 15:08:00,81.3,45.0,29.83,WSW,242,0.0,6.0,28,0.00,,,0.00,meteohub,2013-08-27 22:08:00,
2013-08-27 15:13:00,81.7,44.4,29.83,SW,215,0.0,8.0,27,0.00,,,0.00,meteohub,2013-08-27 22:13:00,
2013-08-27 15:18:00,81.9,44.6,29.82,WSW,246,5.0,8.0,27,0.00,,,0.00,meteohub,2013-08-27 22:18:00,
2013-08-27 15:23:00,81.3,45.0,29.82,WSW,252,2.0,11.0,28,0.00,,,0.00,meteohub,2013-08-27 22:23:00,
2013-08-27 15:28:00,81.3,44.1,29.82,WSW,247,1.0,11.0,27,0.00,,,0.00,meteohub,2013-08-27 22:28:00,
2013-08-27 15:33:00,81.5,44.2,29.82,South,191,2.0,11.0,27,0.00,,,0.00,meteohub,2013-08-27 22:33:00,
2013-08-27 15:38:00,81.7,43.3,29.82,WNW,302,6.0,9.0,26,0.00,,,0.00,meteohub,2013-08-27 22:38:00,
2013-08-27 15:43:00,81.0,42.8,29.82,North,350,1.0,10.0,26,0.00,,,0.00,meteohub,2013-08-27 22:43:00,
2013-08-27 15:49:00,80.4,42.3,29.82,NW,306,0.0,10.0,26,0.00,,,0.00,meteohub,2013-08-27 22:49:00,
2013-08-27 15:54:00,80.4,44.2,29.82,WSW,244,0.0,10.0,28,0.00,,,0.00,meteohub,2013-08-27 22:54:00,
2013-08-27 15:59:00,80.8,43.7,29.82,WSW,250,1.0,5.0,27,0.00,,,0.00,meteohub,2013-08-27 22:59:00,
2013-08-27 16:04:00,81.1,43.9,29.81,SW,231,0.0,5.0,27,0.00,,,0.00,meteohub,2013-08-27 23:04:00,
2013-08-27 16:09:00,80.8,42.6,29.81,South,186,0.0,8.0,26,0.00,,,0.00,meteohub,2013-08-27 23:09:00,
2013-08-27 16:14:00,80.2,43.2,29.81,SE,142,2.0,8.0,27,0.00,,,0.00,meteohub,2013-08-27 23:14:00,
2013-08-27 16:19:00,79.9,42.8,29.81,WSW,245,0.0,8.0,27,0.00,,,0.00,meteohub,2013-08-27 23:19:00,
2013-08-27 16:24:00,79.7,41.7,29.81,West,261,2.0,8.0,26,0.00,,,0.00,meteohub,2013-08-27 23:24:00,
2013-08-27 16:29:00,79.7,42.6,29.81,WSW,249,2.0,8.0,27,0.00,,,0.00,meteohub,2013-08-27 23:29:00,
2013-08-27 16:35:00,79.5,42.6,29.81,ENE,77,0.0,9.0,27,0.00,,,0.00,meteohub,2013-08-27 23:35:00,
2013-08-27 16:40:00,79.3,41.4,29.81,SSW,209,0.0,9.0,26,0.00,,,0.00,meteohub,2013-08-27 23:40:00,
2013-08-27 16:45:00,79.2,41.2,29.81,South,180,0.0,8.0,26,0.00,,,0.00,meteohub,2013-08-27 23:45:00,
2013-08-27 16:50:00,79.0,42.1,29.81,West,261,1.0,8.0,27,0.00,,,0.00,meteohub,2013-08-27 23:50:00,
2013-08-27 16:55:00,79.5,42.6,29.81,South,191,4.0,9.0,27,0.00,,,0.00,meteohub,2013-08-27 23:55:00,
2013-08-27 17:00:00,79.9,41.9,29.80,SSW,213,0.0,8.0,26,0.00,,,0.00,meteohub,2013-08-28 00:00:00,
2013-08-27 17:05:00,80.1,43.0,29.80,SE,141,4.0,8.0,27,0.00,,,0.00,meteohub,2013-08-28 00:05:00,
2013-08-27 17:10:00,80.2,42.3,29.80,SSW,194,5.0,8.0,26,0.00,,,0.00,meteohub,2013-08-28 00:10:00,
2013-08-27 17:15:00,79.7,41.7,29.80,SSW,207,3.0,7.0,26,0.00,,,0.00,meteohub,2013-08-28 00:15:00,
2013-08-27 17:20:00,79.2,41.2,29.80,SSW,209,6.0,7.0,26,0.00,,,0.00,meteohub,2013-08-28 00:20:00,
2013-08-27 17:26:00,78.8,41.9,29.80,South,178,0.0,7.0,27,0.00,,,0.00,meteohub,2013-08-28 00:26:00,
2013-08-27 17:31:00,78.8,39.9,29.80,South,172,0.0,7.0,25,0.00,,,0.00,meteohub,2013-08-28 00:31:00,
2013-08-27 17:36:00,79.0,40.1,29.80,West,265,1.0,7.0,25,0.00,,,0.00,meteohub,2013-08-28 00:36:00,
2013-08-27 17:41:00,79.5,39.6,29.80,SSW,198,0.0,14.0,24,0.00,,,0.00,meteohub,2013-08-28 00:41:00,
2013-08-27 17:46:00,79.7,41.7,29.80,West,263,0.0,14.0,26,0.00,,,0.00,meteohub,2013-08-28 00:46:00,
2013-08-27 17:51:00,79.9,42.8,29.80,SW,228,3.0,14.0,27,0.00,,,0.00,meteohub,2013-08-28 00:51:00,
2013-08-27 17:56:00,80.4,42.3,29.80,WSW,244,0.0,8.0,26,0.00,,,0.00,meteohub,2013-08-28 00:56:00,
2013-08-27 18:01:00,80.4,42.3,29.80,West,260,0.0,8.0,26,0.00,,,0.00,meteohub,2013-08-28 01:01:00,
2013-08-27 18:06:00,80.4,42.3,29.80,SW,215,0.0,8.0,26,0.00,,,0.00,meteohub,2013-08-28 01:06:00,
2013-08-27 18:12:00,79.9,43.9,29.80,WSW,238,0.0,6.0,28,0.00,,,0.00,meteohub,2013-08-28 01:12:00,
2013-08-27 18:17:00,78.8,44.8,29.80,SSW,213,0.0,6.0,30,0.00,,,0.00,meteohub,2013-08-28 01:17:00,
2013-08-27 18:22:00,77.7,43.7,29.80,West,268,0.0,5.0,30,0.00,,,0.00,meteohub,2013-08-28 01:22:00,
2013-08-27 18:27:00,76.8,43.9,29.80,NW,319,0.0,5.0,31,0.00,,,0.00,meteohub,2013-08-28 01:27:00,
2013-08-27 18:32:00,75.9,44.8,29.80,SSE,168,0.0,5.0,33,0.00,,,0.00,meteohub,2013-08-28 01:32:00,
2013-08-27 18:37:00,75.4,45.9,29.80,South,183,0.0,5.0,35,0.00,,,0.00,meteohub,2013-08-28 01:37:00,
2013-08-27 18:42:00,75.0,46.2,29.80,South,184,1.0,4.0,36,0.00,,,0.00,meteohub,2013-08-28 01:42:00,
2013-08-27 18:47:00,74.5,46.4,29.80,SSW,194,0.0,3.0,37,0.00,,,0.00,meteohub,2013-08-28 01:47:00,
2013-08-27 18:53:00,73.9,46.8,29.80,SSW,197,0.0,3.0,38,0.00,,,0.00,meteohub,2013-08-28 01:53:00,
2013-08-27 18:58:00,73.6,47.1,29.80,SW,227,0.0,3.0,39,0.00,,,0.00,meteohub,2013-08-28 01:58:00,
2013-08-27 19:03:00,73.2,46.8,29.80,SW,227,0.0,2.0,39,0.00,,,0.00,meteohub,2013-08-28 02:03:00,
2013-08-27 19:08:00,72.7,46.9,29.80,SW,227,0.0,2.0,40,0.00,,,0.00,meteohub,2013-08-28 02:08:00,
2013-08-27 19:13:00,72.3,47.3,29.80,SW,227,0.0,1.0,41,0.00,,,0.00,meteohub,2013-08-28 02:13:00,
2013-08-27 19:19:00,71.8,47.5,29.80,SW,227,0.0,1.0,42,0.00,,,0.00,meteohub,2013-08-28 02:19:00,
2013-08-27 19:24:00,71.1,47.5,29.80,SW,227,0.0,0.0,43,0.00,,,0.00,meteohub,2013-08-28 02:24:00,
2013-08-27 19:29:00,70.5,47.5,29.80,SW,227,0.0,0.0,44,0.00,,,0.00,meteohub,2013-08-28 02:29:00,
2013-08-27 19:34:00,70.0,47.1,29.80,SW,227,0.0,0.0,44,0.00,,,0.00,meteohub,2013-08-28 02:34:00,
2013-08-27 19:39:00,69.4,47.7,29.80,SW,227,0.0,0.0,46,0.00,,,0.00,meteohub,2013-08-28 02:39:00,
2013-08-27 19:44:00,68.9,46.6,29.80,SW,227,0.0,0.0,45,0.00,,,0.00,meteohub,2013-08-28 02:44:00,
2013-08-27 19:50:00,68.4,46.8,29.80,SW,227,0.0,0.0,46,0.00,,,0.00,meteohub,2013-08-28 02:50:00,
2013-08-27 19:55:00,68.0,46.9,29.80,SW,227,0.0,0.0,47,0.00,,,0.00,meteohub,2013-08-28 02:55:00,
2013-08-27 20:00:00,67.5,48.2,29.80,SW,227,0.0,0.0,50,0.00,,,0.00,meteohub,2013-08-28 03:00:00,
2013-08-27 20:05:00,67.1,47.3,29.80,SW,227,0.0,0.0,49,0.00,,,0.00,meteohub,2013-08-28 03:05:00,
2013-08-27 20:11:00,66.4,46.6,29.80,SW,227,0.0,1.0,49,0.00,,,0.00,meteohub,2013-08-28 03:11:00,
2013-08-27 20:16:00,66.2,47.5,29.81,SW,227,0.0,1.0,51,0.00,,,0.00,meteohub,2013-08-28 03:16:00,
2013-08-27 20:21:00,65.8,47.1,29.81,WSW,237,1.0,1.0,51,0.00,,,0.00,meteohub,2013-08-28 03:21:00,
2013-08-27 20:27:00,65.7,48.0,29.81,North,5,0.0,1.0,53,0.00,,,0.00,meteohub,2013-08-28 03:27:00,
2013-08-27 20:32:00,65.5,48.4,29.81,North,5,0.0,4.0,54,0.00,,,0.00,meteohub,2013-08-28 03:32:00,
2013-08-27 20:37:00,65.3,48.2,29.81,North,5,0.0,4.0,54,0.00,,,0.00,meteohub,2013-08-28 03:37:00,
2013-08-27 20:42:00,65.1,48.6,29.81,NNE,33,2.0,3.0,55,0.00,,,0.00,meteohub,2013-08-28 03:42:00,
2013-08-27 20:47:00,64.8,48.7,29.82,NE,34,0.0,3.0,56,0.00,,,0.00,meteohub,2013-08-28 03:47:00,
2013-08-27 20:52:00,64.4,48.4,29.82,NE,34,0.0,3.0,56,0.00,,,0.00,meteohub,2013-08-28 03:52:00,
2013-08-27 20:57:00,64.2,48.6,29.82,NE,34,0.0,3.0,57,0.00,,,0.00,meteohub,2013-08-28 03:57:00,
2013-08-27 21:01:00,63.9,48.4,29.82,NE,34,0.0,0.0,57,0.00,,,0.00,meteohub,2013-08-28 04:01:00,
2013-08-27 21:02:00,63.9,48.4,29.82,NE,34,0.0,0.0,57,0.00,,,0.00,meteohub,2013-08-28 04:02:00,
2013-08-27 21:03:00,63.7,48.6,29.82,NE,34,0.0,0.0,58,0.00,,,0.00,meteohub,2013-08-28 04:03:00,
2013-08-27 21:06:00,63.5,48.4,29.82,NE,34,0.0,0.0,58,0.00,,,0.00,meteohub,2013-08-28 04:06:00,
2013-08-27 21:12:00,63.0,48.4,29.82,NE,34,0.0,0.0,59,0.00,,,0.00,meteohub,2013-08-28 04:12:00,
2013-08-27 21:15:00,62.8,48.2,29.82,NE,34,0.0,0.0,59,0.00,,,0.00,meteohub,2013-08-28 04:15:00,
2013-08-27 21:20:00,62.6,48.0,29.82,NE,34,0.0,0.0,59,0.00,,,0.00,meteohub,2013-08-28 04:20:00,
2013-08-27 21:25:00,62.4,48.4,29.82,NE,34,0.0,0.0,60,0.00,,,0.00,meteohub,2013-08-28 04:25:00,
2013-08-27 21:30:00,62.2,48.2,29.82,NE,34,0.0,0.0,60,0.00,,,0.00,meteohub,2013-08-28 04:30:00,
2013-08-27 21:36:00,61.9,48.7,29.82,NE,34,0.0,0.0,62,0.00,,,0.00,meteohub,2013-08-28 04:36:00,
2013-08-27 21:41:00,61.7,48.9,29.82,NE,34,0.0,0.0,63,0.00,,,0.00,meteohub,2013-08-28 04:41:00,
2013-08-27 21:46:00,61.2,48.4,29.82,NE,34,0.0,0.0,63,0.00,,,0.00,meteohub,2013-08-28 04:46:00,
2013-08-27 21:51:00,60.8,48.6,29.82,NE,34,0.0,0.0,64,0.00,,,0.00,meteohub,2013-08-28 04:51:00,
2013-08-27 21:56:00,60.3,48.0,29.82,NE,34,0.0,1.0,64,0.00,,,0.00,meteohub,2013-08-28 04:56:00,
2013-08-27 22:01:00,59.7,47.1,29.83,NE,34,0.0,1.0,63,0.00,,,0.00,meteohub,2013-08-28 05:01:00,
2013-08-27 22:06:00,59.2,46.6,29.83,NE,34,0.0,1.0,63,0.00,,,0.00,meteohub,2013-08-28 05:06:00,
2013-08-27 22:11:00,58.6,46.4,29.83,NE,34,0.0,1.0,64,0.00,,,0.00,meteohub,2013-08-28 05:11:00,
2013-08-27 22:16:00,58.3,46.6,29.83,NE,34,0.0,0.0,65,0.00,,,0.00,meteohub,2013-08-28 05:16:00,
2013-08-27 22:22:00,57.9,46.2,29.83,NE,34,0.0,0.0,65,0.00,,,0.00,meteohub,2013-08-28 05:22:00,
2013-08-27 22:27:00,57.6,46.2,29.83,NE,34,0.0,0.0,66,0.00,,,0.00,meteohub,2013-08-28 05:27:00,
2013-08-27 22:32:00,57.2,46.4,29.83,NE,34,0.0,0.0,67,0.00,,,0.00,meteohub,2013-08-28 05:32:00,
2013-08-27 22:37:00,57.0,46.2,29.83,NE,34,0.0,0.0,67,0.00,,,0.00,meteohub,2013-08-28 05:37:00,
2013-08-27 22:42:00,56.8,46.4,29.83,NE,34,0.0,0.0,68,0.00,,,0.00,meteohub,2013-08-28 05:42:00,
2013-08-27 22:47:00,56.7,46.2,29.83,NE,34,0.0,0.0,68,0.00,,,0.00,meteohub,2013-08-28 05:47:00,
2013-08-27 22:52:00,56.5,46.4,29.83,NE,34,0.0,0.0,69,0.00,,,0.00,meteohub,2013-08-28 05:52:00,
2013-08-27 22:57:00,56.1,46.0,29.83,NE,34,0.0,0.0,69,0.00,,,0.00,meteohub,2013-08-28 05:57:00,
2013-08-27 23:02:00,55.6,45.5,29.83,NE,34,0.0,0.0,69,0.00,,,0.00,meteohub,2013-08-28 06:02:00,
2013-08-27 23:07:00,55.4,45.7,29.83,NE,34,0.0,0.0,70,0.00,,,0.00,meteohub,2013-08-28 06:07:00,
2013-08-27 23:12:00,55.0,45.5,29.83,NE,34,0.0,0.0,70,0.00,,,0.00,meteohub,2013-08-28 06:12:00,
2013-08-27 23:17:00,54.5,45.3,29.83,NE,34,0.0,0.0,71,0.00,,,0.00,meteohub,2013-08-28 06:17:00,
2013-08-27 23:22:00,54.0,45.1,29.83,NE,34,0.0,0.0,72,0.00,,,0.00,meteohub,2013-08-28 06:22:00,
2013-08-27 23:27:00,53.8,45.0,29.83,NE,34,0.0,0.0,72,0.00,,,0.00,meteohub,2013-08-28 06:27:00,
2013-08-27 23:32:00,53.4,44.6,29.83,NE,34,0.0,0.0,72,0.00,,,0.00,meteohub,2013-08-28 06:32:00,
2013-08-27 23:37:00,53.2,44.8,29.83,NE,34,0.0,0.0,73,0.00,,,0.00,meteohub,2013-08-28 06:37:00,
2013-08-27 23:42:00,53.1,45.0,29.83,NE,34,0.0,0.0,74,0.00,,,0.00,meteohub,2013-08-28 06:42:00,
2013-08-27 23:47:00,52.9,44.8,29.83,NE,34,0.0,0.0,74,0.00,,,0.00,meteohub,2013-08-28 06:47:00,
2013-08-27 23:52:00,52.7,45.0,29.83,NE,34,0.0,0.0,75,0.00,,,0.00,meteohub,2013-08-28 06:52:00,
2013-08-27 23:57:00,52.5,44.4,29.83,NE,34,0.0,0.0,74,0.00,,,0.00,meteohub,2013-08-28 06:57:00,